Time;durP1;ratioP1;P1;durP2;ratioP2;P2;SDS_P1;SDS_P2;PMS_P1;PMS_P2;Temp;Humidity;BMP_temperature;BMP_pressure;BME280_temperature;BME280_humidity;BME280_pressure;Samples;Min_cycle;Max_cycle;Signal;HPM_P1;HPM_P2
2022/09/02 00:00:08;;;;;;;6.28;2.28;;;11.60;99.90;;;;;;5053852;28;20187;-73
2022/09/02 00:02:34;;;;;;;2.72;2.08;;;11.60;99.90;;;;;;5053391;28;20025;-73
2022/09/02 00:04:59;;;;;;;3.00;2.30;;;11.60;99.90;;;;;;5053920;28;20075;-73
2022/09/02 00:07:25;;;;;;;3.00;1.92;;;11.60;99.90;;;;;;5053601;28;20108;-73
2022/09/02 00:09:51;;;;;;;2.90;2.05;;;11.50;99.90;;;;;;5053032;28;20039;-73
2022/09/02 00:12:17;;;;;;;2.50;2.00;;;11.50;99.90;;;;;;5052388;28;20029;-73
2022/09/02 00:14:42;;;;;;;3.00;2.10;;;11.50;99.90;;;;;;5052405;28;20048;-73
2022/09/02 00:17:08;;;;;;;3.85;2.53;;;11.40;99.90;;;;;;5053096;28;20040;-73
2022/09/02 00:19:35;;;;;;;6.55;2.50;;;11.40;99.90;;;;;;5053291;28;20036;-73
2022/09/02 00:22:01;;;;;;;3.15;2.20;;;11.40;99.90;;;;;;5053406;28;20083;-73
2022/09/02 00:24:28;;;;;;;3.95;2.20;;;11.30;99.90;;;;;;5068852;28;20029;-73
2022/09/02 00:26:53;;;;;;;2.38;1.77;;;11.30;99.90;;;;;;5053515;28;20033;-73
2022/09/02 00:29:19;;;;;;;2.80;2.10;;;11.30;99.90;;;;;;5069107;28;20108;-73
2022/09/02 00:31:45;;;;;;;4.82;2.60;;;11.30;99.90;;;;;;5052997;28;20480;-73
2022/09/02 00:34:11;;;;;;;4.15;2.53;;;11.30;99.90;;;;;;5053262;28;20025;-73
2022/09/02 00:36:38;;;;;;;3.00;2.00;;;11.20;99.90;;;;;;5051927;28;20025;-73
2022/09/02 00:39:06;;;;;;;3.63;2.03;;;11.20;99.90;;;;;;5053401;28;20473;-73
2022/09/02 00:41:32;;;;;;;3.60;2.05;;;11.30;99.90;;;;;;5053080;28;20110;-73
2022/09/02 00:44:02;;;;;;;4.60;1.92;;;11.20;99.90;;;;;;5053154;28;20017;-73
2022/09/02 00:46:30;;;;;;;3.70;2.40;;;11.10;99.90;;;;;;5053430;28;20025;-73
2022/09/02 00:49:08;;;;;;;4.22;2.28;;;11.10;99.90;;;;;;5052768;28;20025;-73
2022/09/02 00:51:45;;;;;;;3.72;2.17;;;11.10;99.90;;;;;;5051805;28;20025;-73
2022/09/02 00:54:13;;;;;;;4.03;2.08;;;11.10;99.90;;;;;;5051823;28;20025;-73
2022/09/02 00:56:42;;;;;;;8.30;2.80;;;11.00;99.90;;;;;;5053285;28;20040;-73
2022/09/02 00:59:14;;;;;;;4.28;2.42;;;11.00;99.90;;;;;;5053206;28;20017;-73
2022/09/02 01:01:40;;;;;;;2.67;1.90;;;11.00;99.90;;;;;;5051929;28;20028;-73
2022/09/02 01:04:05;;;;;;;3.63;2.17;;;11.00;99.90;;;;;;5052929;28;20107;-73
2022/09/02 01:06:32;;;;;;;3.13;2.10;;;11.00;99.90;;;;;;5052928;28;20025;-73
2022/09/02 01:09:07;;;;;;;5.72;2.53;;;11.00;99.90;;;;;;5052802;28;20021;-73
2022/09/02 01:11:40;;;;;;;3.33;2.03;;;10.90;99.90;;;;;;5051826;28;20021;-73
2022/09/02 01:14:06;;;;;;;2.88;2.20;;;10.90;99.90;;;;;;5052824;28;20111;-73
2022/09/02 01:16:53;;;;;;;3.95;2.30;;;10.80;99.90;;;;;;5052618;28;20037;-73
2022/09/02 01:19:28;;;;;;;4.30;2.30;;;10.80;99.90;;;;;;5052735;28;20029;-73
2022/09/02 01:21:55;;;;;;;3.65;2.30;;;10.80;99.90;;;;;;5052623;28;20381;-73
2022/09/02 01:24:24;;;;;;;3.40;2.50;;;10.80;99.90;;;;;;5053123;28;20385;-73
2022/09/02 01:26:56;;;;;;;4.60;2.30;;;10.80;99.90;;;;;;5054434;28;20021;-73
2022/09/02 01:29:23;;;;;;;3.78;2.15;;;10.80;99.90;;;;;;5056355;28;20024;-74
2022/09/02 01:31:49;;;;;;;2.72;1.77;;;10.70;99.90;;;;;;5055051;28;20501;-73
2022/09/02 01:34:15;;;;;;;2.85;2.10;;;10.80;99.90;;;;;;5056421;28;20025;-73
2022/09/02 01:36:42;;;;;;;3.20;2.15;;;10.70;99.90;;;;;;5056666;28;20377;-73
2022/09/02 01:39:10;;;;;;;3.65;2.20;;;10.80;99.90;;;;;;5056251;28;20025;-73
2022/09/02 01:41:36;;;;;;;4.07;2.40;;;10.70;99.90;;;;;;5056140;28;20028;-73
2022/09/02 01:44:03;;;;;;;4.70;2.28;;;10.70;99.90;;;;;;5056163;28;20021;-73
2022/09/02 01:46:29;;;;;;;3.72;2.28;;;10.70;99.90;;;;;;5055931;28;20031;-73
2022/09/02 01:48:54;;;;;;;3.22;2.50;;;10.60;99.90;;;;;;5056321;28;20100;-73
2022/09/02 01:51:20;;;;;;;2.78;2.00;;;10.60;99.90;;;;;;5071584;28;20448;-73
2022/09/02 01:53:47;;;;;;;3.78;2.42;;;10.60;99.90;;;;;;5056014;28;20029;-73
2022/09/02 01:56:13;;;;;;;5.35;3.20;;;10.50;99.90;;;;;;5055956;28;20025;-73
2022/09/02 01:58:39;;;;;;;7.80;4.22;;;10.50;99.90;;;;;;5056126;28;20025;-73
2022/09/02 02:01:05;;;;;;;6.47;4.97;;;10.50;99.90;;;;;;5056077;28;20033;-73
2022/09/02 02:03:31;;;;;;;6.63;4.85;;;10.50;99.90;;;;;;5054593;28;20508;-73
2022/09/02 02:05:56;;;;;;;5.50;3.80;;;10.50;99.90;;;;;;5055763;28;20025;-73
2022/09/02 02:08:23;;;;;;;4.47;3.53;;;10.50;99.90;;;;;;5055824;28;20040;-73
2022/09/02 02:10:48;;;;;;;4.70;3.17;;;10.50;99.90;;;;;;5055962;28;20539;-73
2022/09/02 02:13:15;;;;;;;3.88;3.08;;;10.40;99.90;;;;;;5055545;28;20025;-73
2022/09/02 02:15:42;;;;;;;4.60;2.65;;;10.40;99.90;;;;;;5055573;28;20078;-73
2022/09/02 02:18:08;;;;;;;6.15;2.65;;;10.30;99.90;;;;;;5055643;28;20029;-73
2022/09/02 02:20:35;;;;;;;4.35;2.13;;;10.40;99.90;;;;;;5055460;28;20021;-73
2022/09/02 02:23:01;;;;;;;3.38;2.35;;;10.30;99.90;;;;;;5055215;28;20021;-73
2022/09/02 02:25:27;;;;;;;4.47;2.50;;;10.30;99.90;;;;;;5055845;28;20112;-73
2022/09/02 02:27:53;;;;;;;6.32;2.70;;;10.30;99.90;;;;;;5055637;28;20060;-73
2022/09/02 02:30:18;;;;;;;4.72;3.03;;;10.30;99.90;;;;;;5055375;28;20035;-73
2022/09/02 02:32:46;;;;;;;4.80;2.70;;;10.30;99.90;;;;;;5054020;28;20473;-73
2022/09/02 02:35:15;;;;;;;4.85;2.85;;;10.20;99.90;;;;;;5053952;28;20082;-73
2022/09/02 02:37:41;;;;;;;4.75;3.40;;;10.20;99.90;;;;;;5054413;28;20025;-73
2022/09/02 02:40:09;;;;;;;4.90;3.20;;;10.20;99.90;;;;;;5055287;28;20040;-73
2022/09/02 02:42:35;;;;;;;6.32;3.20;;;10.20;99.90;;;;;;5055089;28;20025;-73
2022/09/02 02:45:01;;;;;;;4.82;3.03;;;10.20;99.90;;;;;;5055374;28;20021;-73
2022/09/02 02:47:27;;;;;;;5.10;3.00;;;10.20;99.90;;;;;;5053713;28;20481;-73
2022/09/02 02:49:52;;;;;;;6.35;3.60;;;10.20;99.90;;;;;;5055500;28;20040;-73
2022/09/02 02:52:18;;;;;;;4.82;2.97;;;10.20;99.90;;;;;;5055240;28;20025;-73
2022/09/02 02:54:44;;;;;;;4.82;2.88;;;10.10;99.90;;;;;;5054887;28;20059;-73
2022/09/02 02:57:11;;;;;;;5.85;2.65;;;10.10;99.90;;;;;;5070282;28;20485;-73
2022/09/02 02:59:37;;;;;;;4.45;2.70;;;10.10;99.90;;;;;;5053421;28;20116;-73
2022/09/02 03:02:05;;;;;;;5.88;2.63;;;10.10;99.90;;;;;;5054732;28;20052;-73
2022/09/02 03:04:31;;;;;;;5.72;2.60;;;10.10;99.90;;;;;;5054959;28;20405;-73
2022/09/02 03:06:56;;;;;;;3.75;2.40;;;10.10;99.90;;;;;;5054538;28;20025;-73
2022/09/02 03:09:25;;;;;;;3.75;2.55;;;10.00;99.90;;;;;;5054591;28;20580;-73
2022/09/02 03:11:51;;;;;;;5.22;2.55;;;10.00;99.90;;;;;;5054831;28;20025;-73
2022/09/02 03:14:18;;;;;;;3.45;2.10;;;10.00;99.90;;;;;;5053972;28;20040;-73
2022/09/02 03:16:43;;;;;;;3.03;2.33;;;9.90;99.90;;;;;;5053231;28;20052;-73
2022/09/02 03:19:12;;;;;;;7.63;2.70;;;9.90;99.90;;;;;;5054339;28;20029;-73
2022/09/02 03:21:39;;;;;;;4.45;2.47;;;9.90;99.90;;;;;;5054311;28;20021;-73
2022/09/02 03:24:06;;;;;;;5.72;2.35;;;9.90;99.90;;;;;;5054566;28;20465;-73
2022/09/02 03:26:31;;;;;;;3.50;2.30;;;9.80;99.90;;;;;;5053060;28;20036;-73
2022/09/02 03:28:58;;;;;;;3.55;2.60;;;9.80;99.90;;;;;;5054241;28;20029;-73
2022/09/02 03:31:26;;;;;;;5.15;2.38;;;9.80;99.90;;;;;;5054184;28;20037;-73
2022/09/02 03:33:52;;;;;;;6.28;2.42;;;9.80;99.90;;;;;;5054173;28;20032;-73
2022/09/02 03:36:31;;;;;;;4.55;2.60;;;9.80;99.90;;;;;;5053086;28;20413;-73
2022/09/02 03:38:58;;;;;;;3.13;2.20;;;9.80;99.90;;;;;;5054246;28;20024;-73
2022/09/02 03:41:24;;;;;;;4.40;2.30;;;9.80;99.90;;;;;;5054154;28;20115;-73
2022/09/02 03:43:50;;;;;;;3.50;2.20;;;9.70;99.90;;;;;;5052458;28;20124;-73
2022/09/02 03:46:16;;;;;;;4.72;2.60;;;9.70;99.90;;;;;;5054137;28;20377;-73
2022/09/02 03:48:43;;;;;;;4.63;2.97;;;9.70;99.90;;;;;;5053835;28;20033;-73
2022/09/02 03:51:09;;;;;;;3.20;2.50;;;9.70;99.90;;;;;;5052947;28;20031;-73
2022/09/02 03:53:35;;;;;;;3.25;2.47;;;9.70;99.90;;;;;;5053820;28;20021;-73
2022/09/02 03:56:05;;;;;;;5.20;2.47;;;9.70;99.90;;;;;;5053978;28;20090;-73
2022/09/02 03:58:32;;;;;;;5.13;2.70;;;9.80;99.90;;;;;;5053428;28;20033;-73
2022/09/02 04:00:57;;;;;;;4.88;2.67;;;9.70;99.90;;;;;;5053408;28;20441;-73
2022/09/02 04:03:23;;;;;;;5.90;2.80;;;9.80;99.90;;;;;;5054180;28;20108;-73
2022/09/02 04:05:51;;;;;;;4.00;2.08;;;9.70;99.90;;;;;;5053594;28;20071;-73
2022/09/02 04:08:17;;;;;;;3.17;2.60;;;9.70;99.90;;;;;;5053738;28;20021;-73
2022/09/02 04:10:43;;;;;;;3.08;2.30;;;9.70;99.90;;;;;;5053864;28;20040;-73
2022/09/02 04:13:10;;;;;;;3.70;2.63;;;9.70;99.90;;;;;;5053677;28;20025;-74
2022/09/02 04:15:41;;;;;;;4.10;2.40;;;9.60;99.90;;;;;;5053373;28;20033;-73
2022/09/02 04:18:07;;;;;;;3.30;2.45;;;9.60;99.90;;;;;;5053655;28;20037;-73
2022/09/02 04:20:33;;;;;;;3.60;2.42;;;9.60;99.90;;;;;;5053332;28;20037;-73
2022/09/02 04:22:59;;;;;;;4.25;2.75;;;9.60;99.90;;;;;;5053394;28;20029;-73
2022/09/02 04:25:24;;;;;;;3.55;2.45;;;9.60;99.90;;;;;;5053317;28;20389;-73
2022/09/02 04:27:50;;;;;;;3.63;2.60;;;9.60;99.90;;;;;;5052962;28;20037;-74
2022/09/02 04:30:17;;;;;;;5.63;2.67;;;9.60;99.90;;;;;;5068860;28;20485;-73
2022/09/02 04:32:42;;;;;;;5.13;3.50;;;9.60;99.90;;;;;;5052661;28;20603;-73
2022/09/02 04:35:08;;;;;;;5.85;3.58;;;9.70;99.90;;;;;;5040485;28;20065;-73
2022/09/02 04:37:34;;;;;;;7.78;4.40;;;9.70;99.90;;;;;;5051700;28;20040;-73
2022/09/02 04:40:00;;;;;;;5.45;3.97;;;9.70;99.90;;;;;;5041520;28;20030;-73
2022/09/02 04:42:26;;;;;;;5.70;4.47;;;9.70;99.90;;;;;;5047044;28;20433;-73
2022/09/02 04:44:53;;;;;;;7.88;3.92;;;9.60;99.90;;;;;;5052941;28;20101;-73
2022/09/02 04:47:19;;;;;;;5.70;4.30;;;9.50;99.90;;;;;;5036029;28;20053;-73
2022/09/02 04:49:45;;;;;;;6.07;4.10;;;9.30;99.90;;;;;;5039498;28;20025;-73
2022/09/02 04:52:10;;;;;;;7.07;3.92;;;9.20;99.90;;;;;;5042089;28;20029;-73
2022/09/02 04:54:36;;;;;;;6.00;4.80;;;9.00;99.90;;;;;;5040538;28;20025;-73
2022/09/02 04:57:02;;;;;;;8.20;5.38;;;9.00;99.90;;;;;;5052978;28;20056;-73
2022/09/02 04:59:28;;;;;;;7.93;5.00;;;9.00;99.90;;;;;;5045096;28;20053;-73
2022/09/02 05:01:53;;;;;;;7.35;5.53;;;9.00;99.90;;;;;;5033742;28;20033;-73
2022/09/02 05:04:19;;;;;;;9.23;5.78;;;9.00;99.90;;;;;;5037358;28;20033;-73
2022/09/02 05:06:45;;;;;;;7.85;5.20;;;9.00;99.90;;;;;;5037272;28;20477;-73
2022/09/02 05:09:12;;;;;;;8.93;5.47;;;9.10;99.90;;;;;;5045384;28;20095;-73
2022/09/02 05:11:38;;;;;;;8.70;4.90;;;9.20;99.90;;;;;;5057152;28;20389;-73
2022/09/02 05:14:05;;;;;;;5.75;4.50;;;9.30;99.90;;;;;;5055918;28;20041;-73
2022/09/02 05:16:35;;;;;;;6.63;4.57;;;9.30;99.90;;;;;;5056716;28;20049;-73
2022/09/02 05:19:03;;;;;;;6.75;4.88;;;9.40;99.90;;;;;;5056935;28;20043;-73
2022/09/02 05:21:30;;;;;;;6.80;4.15;;;9.40;99.90;;;;;;5071767;28;20061;-73
2022/09/02 05:23:57;;;;;;;8.32;5.30;;;9.50;99.90;;;;;;5056837;28;20032;-73
2022/09/02 05:26:23;;;;;;;9.35;5.65;;;9.50;99.90;;;;;;5056612;28;20099;-73
2022/09/02 05:28:49;;;;;;;7.80;5.47;;;9.50;99.90;;;;;;5071653;28;20124;-73
2022/09/02 05:31:18;;;;;;;8.85;6.03;;;9.60;99.90;;;;;;5055251;28;20044;-73
2022/09/02 05:33:44;;;;;;;9.05;5.80;;;9.60;99.90;;;;;;5056691;28;20040;-73
2022/09/02 05:36:13;;;;;;;10.32;6.30;;;9.70;99.90;;;;;;5055096;28;20031;-73
2022/09/02 05:38:40;;;;;;;6.80;5.13;;;9.70;99.90;;;;;;5056270;28;20083;-73
2022/09/02 05:41:08;;;;;;;8.90;5.90;;;9.80;99.90;;;;;;5056477;28;20061;-73
2022/09/02 05:43:38;;;;;;;8.00;5.90;;;9.70;99.90;;;;;;5054729;28;20035;-74
2022/09/02 05:46:06;;;;;;;6.97;5.22;;;9.70;99.90;;;;;;5056074;28;20025;-73
2022/09/02 05:51:21;;;;;;;8.65;5.18;;;9.70;99.90;;;;;;5056693;28;20443;-73
2022/09/02 05:53:47;;;;;;;13.82;6.43;;;9.70;99.90;;;;;;5055559;28;20033;-73
2022/09/02 05:56:13;;;;;;;8.98;6.05;;;9.80;99.90;;;;;;5054793;28;20146;-73
2022/09/02 05:58:39;;;;;;;9.73;6.18;;;9.80;99.90;;;;;;5055903;28;20036;-73
2022/09/02 06:01:10;;;;;;;8.68;5.90;;;9.80;99.90;;;;;;5055423;28;20033;-73
2022/09/02 06:03:35;;;;;;;;;;;9.80;99.90;;;;;;5056574;28;20056;-73
2022/09/02 06:06:01;;;;;;;8.48;5.88;;;9.80;99.90;;;;;;5054831;28;19909;-73
2022/09/02 06:08:27;;;;;;;9.13;5.93;;;9.70;99.90;;;;;;5055795;28;20025;-73
2022/09/02 06:10:53;;;;;;;9.32;5.93;;;9.70;99.90;;;;;;5054035;28;20064;-73
2022/09/02 06:13:21;;;;;;;9.18;6.80;;;9.70;99.90;;;;;;5054332;28;20029;-73
2022/09/02 06:15:50;;;;;;;10.23;6.80;;;9.80;99.90;;;;;;5055612;28;20048;-73
2022/09/02 06:18:16;;;;;;;9.13;6.47;;;9.90;99.90;;;;;;5055178;28;20048;-73
2022/09/02 06:20:47;;;;;;;11.45;8.45;;;10.00;99.90;;;;;;5055477;28;20025;-73
2022/09/02 06:23:14;;;;;;;8.73;6.40;;;10.00;99.90;;;;;;5055820;28;20063;-73
2022/09/02 06:25:41;;;;;;;8.95;6.03;;;10.10;99.90;;;;;;5053957;28;20033;-73
2022/09/02 06:28:08;;;;;;;11.65;7.68;;;10.20;99.90;;;;;;5055493;28;20057;-73
2022/09/02 06:30:34;;;;;;;10.45;7.00;;;10.20;99.90;;;;;;5055151;28;20041;-73
2022/09/02 06:33:02;;;;;;;8.73;6.25;;;10.20;99.90;;;;;;5055364;28;20032;-73
2022/09/02 06:35:30;;;;;;;12.05;7.65;;;10.20;99.90;;;;;;5055861;28;20091;-73
2022/09/02 06:37:59;;;;;;;22.33;12.60;;;10.30;99.90;;;;;;5055148;28;20028;-73
2022/09/02 06:40:25;;;;;;;23.08;14.05;;;10.30;99.90;;;;;;5053909;28;20036;-73
2022/09/02 06:42:52;;;;;;;22.83;13.38;;;10.40;99.90;;;;;;5055429;28;20456;-73
2022/09/02 06:45:18;;;;;;;16.15;10.75;;;10.40;99.90;;;;;;5054681;28;20385;-73
2022/09/02 06:47:44;;;;;;;22.15;13.32;;;10.50;99.90;;;;;;5054951;28;20036;-73
2022/09/02 06:50:10;;;;;;;19.65;11.98;;;10.50;99.90;;;;;;5053314;28;20128;-73
2022/09/02 06:52:37;;;;;;;23.75;12.55;;;10.70;99.90;;;;;;5054934;28;20025;-73
2022/09/02 06:55:04;;;;;;;19.45;12.00;;;10.70;99.90;;;;;;5054929;28;20607;-73
2022/09/02 06:57:29;;;;;;;17.83;10.93;;;10.70;99.90;;;;;;5054020;28;20036;-74
2022/09/02 06:59:55;;;;;;;17.48;11.23;;;10.80;99.90;;;;;;5053059;28;20037;-74
2022/09/02 07:02:21;;;;;;;15.32;11.13;;;10.80;99.90;;;;;;5055273;28;20032;-74
2022/09/02 07:07:31;;;;;;;17.20;12.18;;;10.90;99.90;;;;;;5054550;28;20043;-73
2022/09/02 07:09:56;;;;;;;16.05;11.70;;;10.90;99.90;;;;;;5053441;28;20021;-74
2022/09/02 07:12:22;;;;;;;19.13;12.88;;;11.00;99.90;;;;;;5054437;28;20025;-74
2022/09/02 07:14:48;;;;;;;19.88;11.18;;;11.10;99.90;;;;;;5054507;28;20025;-74
2022/09/02 07:17:16;;;;;;;15.93;11.15;;;11.10;99.90;;;;;;5053160;28;20035;-73
2022/09/02 07:19:43;;;;;;;13.73;10.27;;;11.20;99.90;;;;;;5054745;28;20449;-74
2022/09/02 07:22:09;;;;;;;16.25;11.00;;;11.30;99.90;;;;;;5053176;28;20465;-74
2022/09/02 07:24:36;;;;;;;16.50;9.38;;;11.40;99.90;;;;;;5053257;28;20057;-74
2022/09/02 07:27:02;;;;;;;11.10;8.60;;;11.50;99.90;;;;;;5054114;28;20040;-74
2022/09/02 07:29:28;;;;;;;9.57;7.75;;;11.60;99.90;;;;;;5053847;28;20025;-73
2022/09/02 07:31:53;;;;;;;11.82;7.72;;;11.70;99.90;;;;;;5054409;28;20354;-74
2022/09/02 07:34:20;;;;;;;12.35;9.55;;;11.80;99.90;;;;;;5052398;28;20032;-73
2022/09/02 07:36:47;;;;;;;11.80;8.30;;;12.00;99.90;;;;;;5053649;28;20370;-73
2022/09/02 07:39:15;;;;;;;10.88;8.05;;;12.10;99.90;;;;;;5069129;28;20571;-74
2022/09/02 07:41:43;;;;;;;11.52;8.10;;;12.20;99.90;;;;;;5053722;28;20017;-74
2022/09/02 07:44:09;;;;;;;9.30;7.47;;;12.30;99.90;;;;;;5054249;28;20025;-74
2022/09/02 07:46:35;;;;;;;10.25;8.55;;;12.40;99.90;;;;;;5053920;28;20028;-74
2022/09/02 07:49:05;;;;;;;11.02;8.27;;;12.60;99.90;;;;;;5053786;28;20029;-74
2022/09/02 07:51:32;;;;;;;10.32;8.45;;;12.70;99.90;;;;;;5053840;28;20021;-74
2022/09/02 07:53:58;;;;;;;10.45;8.85;;;12.90;99.90;;;;;;5052126;28;20025;-74
2022/09/02 07:56:24;;;;;;;12.63;9.35;;;13.00;99.90;;;;;;5051172;28;20053;-73
2022/09/02 07:58:50;;;;;;;9.75;8.10;;;13.20;99.90;;;;;;5041574;28;20032;-73
2022/09/02 08:01:15;;;;;;;10.50;6.57;;;13.40;99.90;;;;;;5052840;28;20507;-74
2022/09/02 08:03:43;;;;;;;7.65;6.28;;;13.60;99.90;;;;;;5053952;28;20021;-74
2022/09/02 08:06:11;;;;;;;8.68;5.97;;;13.70;99.90;;;;;;5053587;28;20021;-74
2022/09/02 08:08:37;;;;;;;8.02;5.65;;;13.90;99.90;;;;;;5052191;28;20447;-73
2022/09/02 08:11:03;;;;;;;7.88;5.40;;;14.00;99.90;;;;;;5052026;28;20053;-74
2022/09/02 08:13:29;;;;;;;8.70;6.13;;;14.10;99.90;;;;;;5052183;28;20481;-75
2022/09/02 08:15:54;;;;;;;8.45;4.75;;;14.30;99.90;;;;;;5053512;28;20051;-73
2022/09/02 08:18:20;;;;;;;6.45;4.70;;;14.40;99.90;;;;;;5053800;28;20041;-74
2022/09/02 08:20:46;;;;;;;6.18;4.60;;;14.60;99.90;;;;;;5053345;28;20052;-74
2022/09/02 08:23:13;;;;;;;5.78;4.63;;;14.70;99.90;;;;;;5053393;28;20366;-74
2022/09/02 08:25:39;;;;;;;7.35;5.43;;;14.80;99.90;;;;;;5053715;28;20029;-74
2022/09/02 08:28:06;;;;;;;8.00;5.40;;;14.90;99.90;;;;;;5053059;28;20059;-74
2022/09/02 08:30:32;;;;;;;6.65;5.10;;;15.10;99.90;;;;;;5046493;28;20037;-73
2022/09/02 08:32:58;;;;;;;5.68;4.82;;;15.30;99.90;;;;;;5044288;28;20056;-73
2022/09/02 08:35:23;;;;;;;6.70;4.82;;;15.40;99.90;;;;;;5038518;28;20464;-74
2022/09/02 08:37:49;;;;;;;5.93;3.95;;;15.50;99.90;;;;;;5041443;28;20044;-74
2022/09/02 08:40:21;;;;;;;5.85;3.42;;;15.60;99.90;;;;;;5038756;28;20504;-74
2022/09/02 08:42:55;;;;;;;4.47;3.28;;;15.70;99.90;;;;;;5043808;28;20470;-74
2022/09/02 08:45:27;;;;;;;4.95;3.55;;;15.80;99.90;;;;;;5039141;28;20043;-74
2022/09/02 08:48:28;;;;;;;5.20;3.72;;;15.90;99.90;;;;;;5039915;28;20030;-74
2022/09/02 08:51:02;;;;;;;5.70;3.10;;;16.10;99.90;;;;;;5045695;28;20026;-74
2022/09/02 08:53:34;;;;;;;4.40;3.25;;;16.30;99.90;;;;;;5037360;28;20377;-74
2022/09/02 08:56:01;;;;;;;4.78;3.42;;;16.40;99.90;;;;;;5046686;28;20032;-74
2022/09/02 08:58:31;;;;;;;8.20;3.83;;;16.60;99.90;;;;;;5044348;28;20037;-74
2022/09/02 09:01:35;;;;;;;5.57;3.30;;;16.70;99.90;;;;;;5038192;28;20392;-74
2022/09/02 09:04:17;;;;;;;5.32;3.30;;;16.90;99.90;;;;;;5046160;28;20512;-74
2022/09/02 09:06:58;;;;;;;5.72;3.30;;;17.00;99.90;;;;;;5045216;28;20029;-74
2022/09/02 09:09:44;;;;;;;4.17;3.17;;;17.20;99.90;;;;;;5045268;28;20079;-74
2022/09/02 09:12:33;;;;;;;4.75;3.15;;;17.30;99.90;;;;;;5070659;28;20275;-74
2022/09/02 09:15:04;;;;;;;5.97;4.03;;;17.50;99.90;;;;;;5034871;28;20049;-75
2022/09/02 09:17:47;;;;;;;5.22;4.35;;;17.60;99.90;;;;;;5040223;28;20031;-74
2022/09/02 09:20:25;;;;;;;6.47;4.15;;;17.70;99.90;;;;;;5044772;28;20037;-74
2022/09/02 09:22:55;;;;;;;4.97;3.60;;;17.80;99.90;;;;;;5041380;28;20025;-74
2022/09/02 09:25:31;;;;;;;6.30;3.38;;;18.00;99.90;;;;;;5045464;28;20374;-74
2022/09/02 09:27:58;;;;;;;4.93;3.60;;;18.10;99.90;;;;;;5042241;28;20024;-74
2022/09/02 09:30:24;;;;;;;4.60;3.72;;;18.10;99.40;;;;;;5038988;28;20171;-74
2022/09/02 09:32:56;;;;;;;4.78;3.35;;;18.20;99.60;;;;;;5037868;28;20072;-74
2022/09/02 09:35:22;;;;;;;16.58;4.60;;;18.30;99.00;;;;;;5038799;28;20394;-74
2022/09/02 09:37:50;;;;;;;5.18;3.38;;;18.40;98.30;;;;;;5038282;28;20028;-74
2022/09/02 09:40:21;;;;;;;4.45;3.95;;;18.50;99.30;;;;;;5043841;28;20057;-74
2022/09/02 09:43:04;;;;;;;5.78;4.22;;;18.60;99.90;;;;;;5041421;28;20021;-74
2022/09/02 09:45:32;;;;;;;4.45;3.40;;;18.80;99.90;;;;;;5041894;28;20061;-74
2022/09/02 09:48:39;;;;;;;6.13;3.67;;;18.90;99.50;;;;;;5044324;28;20474;-74
2022/09/02 09:51:02;;;;;;;4.57;3.15;;;19.00;98.80;;;;;;5041861;28;20112;-74
2022/09/02 09:53:29;;;;;;;5.90;3.35;;;19.20;97.80;;;;;;5047282;28;20048;-74
2022/09/02 09:55:56;;;;;;;4.43;3.20;;;19.20;98.40;;;;;;5051801;28;20033;-74
2022/09/02 09:58:26;;;;;;;4.63;3.25;;;19.40;99.60;;;;;;5040038;28;20059;-74
2022/09/02 10:00:59;;;;;;;4.05;2.97;;;19.50;98.20;;;;;;5041359;28;20477;-74
2022/09/02 10:03:27;;;;;;;5.40;3.00;;;19.70;97.40;;;;;;5041700;28;20033;-74
2022/09/02 10:05:57;;;;;;;4.10;3.03;;;19.70;97.30;;;;;;5041007;28;20056;-74
2022/09/02 10:08:26;;;;;;;3.42;2.65;;;19.90;97.20;;;;;;5039697;28;20142;-74
2022/09/02 10:11:01;;;;;;;5.18;2.80;;;19.90;96.30;;;;;;5042879;28;20037;-74
2022/09/02 10:13:35;;;;;;;4.47;2.40;;;20.00;96.50;;;;;;5044103;28;20029;-74
2022/09/02 10:16:11;;;;;;;3.50;2.15;;;20.10;96.20;;;;;;5040235;28;20037;-74
2022/09/02 10:19:05;;;;;;;3.28;2.20;;;20.20;95.80;;;;;;5049243;28;21370;-74
2022/09/02 10:21:39;;;;;;;4.50;2.53;;;20.30;95.00;;;;;;5041419;28;20021;-74
2022/09/02 10:24:42;;;;;;;4.97;2.75;;;20.30;94.10;;;;;;5041849;28;20018;-74
2022/09/02 10:27:13;;;;;;;3.95;2.65;;;20.50;95.60;;;;;;5041082;28;20037;-74
2022/09/02 10:29:42;;;;;;;3.10;2.60;;;20.60;95.10;;;;;;5041446;28;20028;-74
2022/09/02 10:32:26;;;;;;;3.88;2.47;;;20.70;94.90;;;;;;5041368;28;20029;-74
2022/09/02 10:35:10;;;;;;;5.28;2.13;;;20.80;94.20;;;;;;5046465;28;21375;-74
2022/09/02 10:37:48;;;;;;;3.40;2.20;;;21.00;94.10;;;;;;5041465;28;20025;-74
2022/09/02 10:40:19;;;;;;;2.92;2.08;;;21.00;93.10;;;;;;5041120;28;20132;-74
2022/09/02 10:43:05;;;;;;;3.33;2.00;;;21.10;93.90;;;;;;5047533;28;20030;-74
2022/09/02 10:45:47;;;;;;;2.40;1.88;;;21.20;91.80;;;;;;5041055;28;20021;-74
2022/09/02 10:48:24;;;;;;;4.68;1.90;;;21.30;91.70;;;;;;5041320;28;20032;-74
2022/09/02 10:51:05;;;;;;;3.88;1.83;;;21.40;91.50;;;;;;5047568;28;20026;-74
2022/09/02 10:54:08;;;;;;;4.00;1.45;;;21.60;92.80;;;;;;5047788;28;20032;-74
2022/09/02 10:57:22;;;;;;;3.03;1.67;;;21.70;89.20;;;;;;5046995;28;20388;-74
2022/09/02 10:59:56;;;;;;;2.83;1.60;;;21.80;90.30;;;;;;5040369;28;20508;-74
2022/09/02 11:03:12;;;;;;;3.65;1.52;;;21.80;90.00;;;;;;5040807;28;20497;-76
2022/09/02 11:05:44;;;;;;;3.78;1.75;;;21.90;88.20;;;;;;5040426;28;20457;-76
2022/09/02 11:08:26;;;;;;;2.22;1.50;;;22.00;88.90;;;;;;5043258;28;20017;-71
2022/09/02 11:11:31;;;;;;;2.90;1.50;;;22.00;88.60;;;;;;5040943;28;20031;-72
2022/09/02 11:14:23;;;;;;;2.45;1.70;;;22.10;88.70;;;;;;5048538;28;20042;-72
2022/09/02 11:16:50;;;;;;;2.53;1.70;;;22.30;87.70;;;;;;5046687;28;20040;-71
2022/09/02 11:19:35;;;;;;;4.07;1.90;;;22.30;89.90;;;;;;5052553;28;20025;-74
2022/09/02 11:22:33;;;;;;;2.95;1.80;;;22.40;90.30;;;;;;5035020;28;20035;-74
2022/09/02 11:25:20;;;;;;;2.38;1.70;;;22.50;88.40;;;;;;5051169;28;20068;-71
2022/09/02 11:27:52;;;;;;;2.20;1.50;;;22.50;92.30;;;;;;5052709;28;20013;-71
2022/09/02 11:30:20;;;;;;;3.20;1.58;;;22.60;90.10;;;;;;5054266;28;20029;-71
2022/09/02 11:32:58;;;;;;;3.03;1.70;;;22.70;88.60;;;;;;5054098;28;20025;-74
2022/09/02 11:35:26;;;;;;;4.65;1.50;;;22.70;89.30;;;;;;5054513;28;20024;-73
2022/09/02 11:38:10;;;;;;;2.25;1.63;;;22.80;88.90;;;;;;5054016;28;20098;-74
2022/09/02 11:40:50;;;;;;;2.83;1.40;;;22.80;88.90;;;;;;5054082;28;20389;-73
2022/09/02 11:43:40;;;;;;;2.33;1.70;;;22.80;87.50;;;;;;5052847;28;20562;-73
2022/09/02 11:46:35;;;;;;;2.80;1.60;;;22.80;87.30;;;;;;5034658;28;20477;-73
2022/09/02 11:49:23;;;;;;;3.83;1.67;;;22.90;87.50;;;;;;5036318;28;20032;-73
2022/09/02 11:52:00;;;;;;;2.40;1.60;;;23.00;87.90;;;;;;5046175;28;20025;-73
2022/09/02 11:54:32;;;;;;;2.63;1.60;;;23.00;84.50;;;;;;5039282;28;20432;-73
2022/09/02 11:57:01;;;;;;;2.65;1.70;;;23.10;86.40;;;;;;5038096;28;20082;-73
2022/09/02 11:59:51;;;;;;;3.90;1.52;;;23.10;83.00;;;;;;5039213;28;20108;-73
2022/09/02 12:02:42;;;;;;;2.73;2.00;;;23.20;87.00;;;;;;5039681;28;20147;-71
2022/09/02 12:05:30;;;;;;;3.65;2.00;;;23.30;84.30;;;;;;5038595;28;20026;-71
2022/09/02 12:08:11;;;;;;;2.53;1.40;;;23.40;82.70;;;;;;5040595;28;20032;-70
2022/09/02 12:10:42;;;;;;;7.95;3.17;;;23.30;81.70;;;;;;5039135;28;20026;-73
2022/09/02 12:13:36;;;;;;;2.38;1.52;;;23.30;86.10;;;;;;5036069;28;20029;-74
2022/09/02 12:16:22;;;;;;;5.05;1.90;;;23.50;83.10;;;;;;5029926;28;20045;-73
2022/09/02 12:18:54;;;;;;;2.90;1.60;;;23.50;82.20;;;;;;5033735;28;20017;-73
2022/09/02 12:21:24;;;;;;;3.88;1.77;;;23.60;83.80;;;;;;5039046;28;20392;-73
2022/09/02 12:23:51;;;;;;;3.85;1.67;;;23.70;82.10;;;;;;5053430;28;20077;-73
2022/09/02 12:26:19;;;;;;;4.60;1.60;;;23.70;84.10;;;;;;5053366;28;20110;-73
2022/09/02 12:28:46;;;;;;;3.00;1.65;;;23.70;82.30;;;;;;5053274;28;20037;-73
2022/09/02 12:31:41;;;;;;;2.35;1.50;;;23.70;81.10;;;;;;5052368;28;20060;-73
2022/09/02 12:34:27;;;;;;;2.30;1.60;;;23.80;84.60;;;;;;5053333;28;20024;-73
2022/09/02 12:36:59;;;;;;;3.65;1.67;;;23.90;81.70;;;;;;5053001;28;20043;-73
2022/09/02 12:39:28;;;;;;;3.22;1.50;;;24.00;80.00;;;;;;5053270;28;20078;-73
2022/09/02 12:41:53;;;;;;;2.00;1.30;;;23.90;80.60;;;;;;5053403;28;20029;-73
2022/09/02 12:44:38;;;;;;;2.35;1.50;;;24.00;80.50;;;;;;5053229;28;20477;-71
2022/09/02 12:47:18;;;;;;;2.55;1.58;;;24.00;79.10;;;;;;5053384;28;20017;-73
2022/09/02 12:50:03;;;;;;;;;;;23.90;77.50;;;;;;5053899;28;20151;-73
2022/09/02 12:52:35;;;;;;;2.35;1.48;;;23.90;79.40;;;;;;5052858;28;19912;-72
2022/09/02 12:55:20;;;;;;;4.80;1.60;;;24.00;77.50;;;;;;5052758;28;20428;-73
2022/09/02 12:58:08;;;;;;;2.55;1.55;;;23.90;78.30;;;;;;5052609;28;20060;-73
2022/09/02 13:00:45;;;;;;;1.98;1.48;;;24.00;81.00;;;;;;5052468;28;20211;-72
2022/09/02 13:03:16;;;;;;;3.88;1.73;;;24.00;82.20;;;;;;5053590;28;20029;-72
2022/09/02 13:05:55;;;;;;;2.90;1.58;;;24.00;77.60;;;;;;5053035;28;20025;-72
2022/09/02 13:09:02;;;;;;;3.45;1.70;;;24.00;79.30;;;;;;5052849;28;20450;-73
2022/09/02 13:11:30;;;;;;;2.20;1.70;;;24.10;80.70;;;;;;5020223;28;20040;-72